createdAt,value
2023-12-01T00:23:50.589Z,87.21
2023-12-01T00:38:54.154Z,87.13
2023-12-01T00:54:09.771Z,85.34
2023-12-01T01:40:58.064Z,82.46
2023-12-01T01:56:20.883Z,83.00
2023-12-01T02:11:35.252Z,82.31
2023-12-01T03:14:01.843Z,80.89
2023-12-01T03:29:14.138Z,81.78
2023-12-01T04:00:20.865Z,80.27
2023-12-01T04:46:02.481Z,77.99
2023-12-01T05:01:07.591Z,77.18
2023-12-01T05:16:12.192Z,77.34
2023-12-01T05:31:20.591Z,78.63
2023-12-01T05:46:29.211Z,78.72
2023-12-01T06:01:36.284Z,78.25
2023-12-01T06:32:37.228Z,78.48
2023-12-01T06:47:42.845Z,78.05
2023-12-01T07:02:47.626Z,79.79
2023-12-01T07:17:55.925Z,76.73
2023-12-01T07:33:09.633Z,77.57
2023-12-01T07:48:21.668Z,75.42
2023-12-01T08:03:25.235Z,75.52
2023-12-01T08:18:29.434Z,74.30
2023-12-01T08:33:34.044Z,74.33
2023-12-01T08:48:37.918Z,74.39
2023-12-01T09:03:44.776Z,75.42
2023-12-01T09:18:48.432Z,75.91
2023-12-01T09:33:52.477Z,76.52
2023-12-01T09:48:59.667Z,76.52
2023-12-01T10:04:03.794Z,75.08
2023-12-01T10:19:19.726Z,74.46
2023-12-01T10:34:23.378Z,73.40
2023-12-01T10:49:26.772Z,73.58
2023-12-01T11:04:34.756Z,72.84
2023-12-01T11:19:40.251Z,72.96
2023-12-01T11:35:07.777Z,74.39
2023-12-01T11:50:14.810Z,73.67
2023-12-01T12:05:18.511Z,73.08
2023-12-01T12:20:25.491Z,73.65
2023-12-01T12:35:29.558Z,72.23
2023-12-01T12:50:39.827Z,73.31
2023-12-01T13:05:48.062Z,73.04
2023-12-01T13:20:52.793Z,73.09
2023-12-01T13:36:00.214Z,73.94
2023-12-01T13:51:07.048Z,72.22
2023-12-01T14:22:19.638Z,74.07
2023-12-01T14:37:33.985Z,74.43
2023-12-01T14:52:39.295Z,74.09
2023-12-01T15:23:55.643Z,73.90
2023-12-01T15:39:06.339Z,74.05
2023-12-01T15:54:10.536Z,75.44
2023-12-01T16:26:07.867Z,75.53
2023-12-01T16:56:58.267Z,75.80
2023-12-01T17:12:04.475Z,76.16
2023-12-01T19:50:58.989Z,74.59
2023-12-01T20:39:54.081Z,75.50
2023-12-01T23:40:56.133Z,76.04
